createdAt,value
2023-01-30T00:09:53.931Z,74.95
2023-01-30T00:20:05.635Z,75.04
2023-01-30T00:30:21.571Z,75.10
2023-01-30T00:40:28.046Z,74.83
2023-01-30T00:51:13.064Z,74.98
2023-01-30T01:01:40.642Z,75.19
2023-01-30T01:12:05.013Z,75.58
2023-01-30T01:22:34.874Z,75.81
2023-01-30T01:32:38.977Z,75.61
2023-01-30T01:42:58.475Z,75.45
2023-01-30T01:53:26.005Z,76.18
2023-01-30T02:03:52.982Z,76.47
2023-01-30T02:14:15.285Z,76.68
2023-01-30T02:25:19.835Z,77.02
2023-01-30T02:35:50.611Z,76.80
2023-01-30T02:46:54.150Z,76.73
2023-01-30T02:57:09.953Z,77.13
2023-01-30T03:07:32.495Z,76.86
2023-01-30T03:17:48.125Z,77.15
2023-01-30T03:28:17.366Z,77.46
2023-01-30T03:38:21.865Z,77.50
2023-01-30T03:48:29.918Z,77.63
2023-01-30T03:58:46.911Z,77.53
2023-01-30T04:08:59.871Z,77.55
2023-01-30T04:19:14.306Z,76.52
2023-01-30T04:30:19.506Z,76.29
2023-01-30T04:40:45.092Z,76.89
2023-01-30T04:50:50.714Z,77.08
2023-01-30T05:00:54.909Z,77.39
2023-01-30T05:11:37.724Z,77.50
2023-01-30T05:22:09.956Z,77.74
2023-01-30T05:32:35.329Z,77.43
2023-01-30T05:43:10.922Z,77.41
2023-01-30T05:53:24.281Z,77.45
2023-01-30T06:03:39.562Z,77.34
2023-01-30T06:13:53.899Z,75.77
2023-01-30T06:24:08.324Z,75.03
2023-01-30T06:34:13.160Z,74.51
2023-01-30T06:44:37.511Z,73.96
2023-01-30T06:54:47.600Z,72.94
2023-01-30T07:04:52.094Z,72.03
2023-01-30T07:14:58.002Z,71.31
2023-01-30T07:25:02.480Z,70.51
2023-01-30T07:35:07.277Z,69.57
2023-01-30T07:45:12.003Z,69.51
2023-01-30T07:55:16.502Z,68.55
2023-01-30T08:05:21.123Z,68.14
2023-01-30T08:15:25.215Z,68.15
2023-01-30T08:25:31.032Z,67.58
2023-01-30T08:35:36.145Z,67.27
2023-01-30T08:45:40.290Z,67.43
2023-01-30T08:55:46.559Z,67.40
2023-01-30T09:06:00.146Z,66.53
2023-01-30T09:16:27.020Z,65.14
2023-01-30T09:26:33.207Z,64.89
2023-01-30T09:36:37.198Z,65.58
2023-01-30T09:46:53.356Z,65.02
2023-01-30T09:57:20.349Z,64.42
2023-01-30T10:08:13.846Z,64.29
2023-01-30T10:18:34.607Z,64.37
2023-01-30T10:28:58.843Z,63.57
2023-01-30T10:39:54.338Z,63.54
2023-01-30T10:50:03.473Z,64.01
2023-01-30T11:00:17.022Z,63.91
2023-01-30T11:11:27.099Z,64.21
2023-01-30T11:21:43.650Z,63.96
2023-01-30T11:31:51.187Z,64.40
2023-01-30T11:41:55.956Z,64.00
2023-01-30T11:52:01.197Z,63.43
2023-01-30T12:02:24.267Z,63.35
2023-01-30T12:12:49.515Z,63.30
2023-01-30T12:23:11.531Z,63.26
2023-01-30T12:43:39.507Z,65.51
2023-01-30T12:54:00.860Z,66.35
2023-01-30T13:04:17.643Z,67.65
2023-01-30T13:14:39.382Z,68.40
2023-01-30T13:25:08.974Z,69.25
2023-01-30T13:35:25.312Z,69.62
2023-01-30T13:45:38.851Z,69.91
2023-01-30T13:56:44.436Z,70.90
2023-01-30T14:07:42.300Z,71.35
2023-01-30T14:18:26.820Z,71.69
2023-01-30T14:28:55.221Z,71.83
2023-01-30T14:40:00.185Z,72.25
2023-01-30T14:50:51.534Z,72.29
2023-01-30T15:01:01.799Z,72.97
2023-01-30T15:11:33.861Z,73.44
2023-01-30T15:22:00.054Z,73.05
2023-01-30T15:32:19.675Z,73.15
2023-01-30T15:42:35.392Z,72.88
2023-01-30T15:52:53.586Z,72.85
2023-01-30T16:03:21.319Z,72.70
2023-01-30T16:14:17.134Z,72.86
2023-01-30T16:24:50.044Z,73.03
2023-01-30T16:35:32.867Z,73.33
2023-01-30T16:46:08.534Z,73.67
2023-01-30T16:56:27.445Z,73.84
2023-01-30T17:07:20.815Z,73.82
2023-01-30T17:18:11.321Z,74.03
2023-01-30T17:28:28.737Z,74.25
2023-01-30T17:39:01.597Z,74.68
2023-01-30T17:49:27.738Z,74.69
2023-01-30T18:00:00.894Z,74.81
2023-01-30T18:10:06.443Z,74.46
2023-01-30T18:20:16.593Z,74.66
2023-01-30T18:30:34.184Z,74.74
2023-01-30T18:40:49.164Z,74.80
2023-01-30T18:50:56.395Z,74.48
2023-01-30T19:01:16.084Z,74.87
2023-01-30T19:11:44.023Z,74.50
2023-01-30T19:21:53.230Z,74.50
2023-01-30T19:31:59.565Z,74.61
2023-01-30T19:42:08.869Z,74.47
2023-01-30T19:52:15.316Z,74.16
2023-01-30T20:02:21.677Z,74.16
2023-01-30T20:12:30.908Z,74.32
2023-01-30T20:22:37.251Z,74.02
2023-01-30T20:32:43.481Z,74.15
2023-01-30T20:42:49.818Z,74.73
2023-01-30T20:53:12.088Z,76.21
2023-01-30T21:03:38.370Z,77.06
2023-01-30T21:13:48.474Z,77.18
2023-01-30T21:23:57.179Z,76.99
2023-01-30T21:34:10.498Z,77.78
2023-01-30T21:44:19.212Z,78.34
2023-01-30T21:54:23.949Z,78.63
2023-01-30T22:04:28.588Z,79.01
2023-01-30T22:14:35.537Z,79.31
2023-01-30T22:24:39.692Z,79.65
2023-01-30T22:34:43.632Z,79.78
2023-01-30T22:44:47.536Z,80.20
2023-01-30T22:54:51.489Z,80.31
2023-01-30T23:04:55.432Z,80.26
2023-01-30T23:14:59.365Z,80.15
2023-01-30T23:25:09.743Z,79.97
2023-01-30T23:35:13.688Z,79.42
2023-01-30T23:45:18.410Z,78.91
2023-01-30T23:55:22.764Z,78.02
